createdAt,value
2019-03-09T00:00:35.953Z,22.00
2019-03-09T00:03:03.615Z,22.00
2019-03-09T00:05:31.264Z,22.00
2019-03-09T00:07:58.912Z,22.00
2019-03-09T00:10:26.519Z,22.00
2019-03-09T00:12:54.100Z,22.00
2019-03-09T00:15:21.928Z,22.00
2019-03-09T00:17:49.544Z,22.00
2019-03-09T00:20:17.196Z,22.00
2019-03-09T00:22:46.490Z,22.00
2019-03-09T00:25:15.713Z,22.00
2019-03-09T00:27:44.976Z,22.00
2019-03-09T00:30:23.311Z,22.00
2019-03-09T00:32:50.989Z,22.00
2019-03-09T00:35:18.668Z,22.00
2019-03-09T00:37:46.402Z,22.00
2019-03-09T00:40:13.986Z,22.00
2019-03-09T00:42:42.116Z,22.10
2019-03-09T00:45:10.013Z,22.00
2019-03-09T00:47:37.736Z,22.00
2019-03-09T00:50:06.892Z,22.00
2019-03-09T00:52:34.594Z,22.00
2019-03-09T00:55:02.536Z,22.00
2019-03-09T00:57:30.211Z,22.00
2019-03-09T00:59:57.868Z,22.00
2019-03-09T01:02:25.500Z,22.00
2019-03-09T01:04:53.111Z,22.20
2019-03-09T01:07:20.728Z,22.00
2019-03-09T01:09:48.317Z,22.00
2019-03-09T01:12:16.036Z,22.00
2019-03-09T01:14:43.655Z,22.10
2019-03-09T01:17:11.326Z,22.00
2019-03-09T01:19:39.042Z,22.00
2019-03-09T01:22:06.727Z,22.00
2019-03-09T01:24:34.396Z,22.00
2019-03-09T01:27:02.063Z,22.00
2019-03-09T01:29:29.669Z,22.00
2019-03-09T01:31:57.287Z,22.00
2019-03-09T01:34:24.890Z,22.00
2019-03-09T01:36:52.538Z,22.00
2019-03-09T01:39:20.133Z,22.00
2019-03-09T01:41:47.760Z,22.00
2019-03-09T01:44:15.364Z,22.00
2019-03-09T01:46:43.028Z,22.00
2019-03-09T01:49:10.675Z,22.00
2019-03-09T01:51:38.272Z,22.00
2019-03-09T01:54:05.866Z,22.00
2019-03-09T01:56:33.516Z,22.00
2019-03-09T01:59:01.113Z,22.00
2019-03-09T02:01:28.764Z,22.00
2019-03-09T02:03:56.468Z,22.00
2019-03-09T02:06:24.073Z,22.00
2019-03-09T02:08:51.698Z,22.00
2019-03-09T02:11:19.308Z,22.00
2019-03-09T02:13:46.937Z,22.00
2019-03-09T02:16:14.574Z,22.00
2019-03-09T02:18:42.190Z,22.00
2019-03-09T02:21:09.826Z,22.00
2019-03-09T02:23:37.433Z,22.00
2019-03-09T02:26:05.030Z,22.00
2019-03-09T02:28:32.680Z,22.00
2019-03-09T02:31:00.332Z,22.00
2019-03-09T02:33:27.936Z,22.00
2019-03-09T02:35:55.592Z,22.00
2019-03-09T02:38:24.812Z,22.00
2019-03-09T02:40:52.412Z,22.00
2019-03-09T02:43:20.109Z,22.00
2019-03-09T02:45:47.721Z,22.00
2019-03-09T02:48:15.301Z,22.00
2019-03-09T02:50:55.136Z,22.00
2019-03-09T02:53:23.090Z,22.00
2019-03-09T02:55:50.738Z,21.90
2019-03-09T02:58:18.433Z,22.00
2019-03-09T03:00:47.705Z,22.00
2019-03-09T03:03:15.354Z,22.00
2019-03-09T03:05:43.068Z,22.00
2019-03-09T03:08:10.739Z,21.90
2019-03-09T03:10:38.345Z,22.00
2019-03-09T03:13:06.070Z,22.00
2019-03-09T03:15:35.396Z,22.00
2019-03-09T03:18:03.313Z,21.90
2019-03-09T03:20:30.965Z,21.90
2019-03-09T03:22:58.653Z,22.00
2019-03-09T03:25:26.248Z,21.90
2019-03-09T03:27:53.845Z,22.00
2019-03-09T03:30:21.525Z,22.00
2019-03-09T03:32:49.441Z,22.00
2019-03-09T03:35:17.119Z,21.90
2019-03-09T03:37:44.830Z,22.00
2019-03-09T03:40:12.411Z,21.90
2019-03-09T03:42:40.093Z,21.90
2019-03-09T03:45:09.106Z,21.90
2019-03-09T03:47:36.834Z,22.00
2019-03-09T03:50:04.747Z,21.90
2019-03-09T03:52:32.363Z,21.90
2019-03-09T03:55:00.252Z,21.90
2019-03-09T03:57:28.234Z,21.90
2019-03-09T03:59:55.976Z,21.90
2019-03-09T04:02:23.624Z,22.00
2019-03-09T04:04:51.234Z,21.90
2019-03-09T04:07:18.884Z,21.90
2019-03-09T04:09:46.516Z,21.90
2019-03-09T04:12:14.106Z,21.90
2019-03-09T04:14:41.712Z,22.00
2019-03-09T04:17:09.438Z,22.00
2019-03-09T04:19:37.107Z,21.90
2019-03-09T04:22:04.777Z,22.00
2019-03-09T04:24:32.437Z,22.00
2019-03-09T04:27:00.034Z,21.90
2019-03-09T04:29:27.635Z,21.90
2019-03-09T04:31:55.295Z,21.90
2019-03-09T04:34:22.944Z,21.90
2019-03-09T04:36:52.173Z,21.90
2019-03-09T04:39:19.841Z,21.90
2019-03-09T04:41:49.055Z,22.00
2019-03-09T04:44:16.634Z,21.90
2019-03-09T04:46:44.292Z,21.90
2019-03-09T04:49:11.963Z,21.90
2019-03-09T04:51:39.568Z,21.90
2019-03-09T04:54:07.246Z,21.90
2019-03-09T04:56:35.805Z,21.90
2019-03-09T04:59:03.518Z,21.90
2019-03-09T05:01:31.115Z,21.90
2019-03-09T05:04:09.507Z,21.90
2019-03-09T05:06:37.077Z,21.90
2019-03-09T05:09:08.954Z,21.90
2019-03-09T05:11:36.622Z,21.90
2019-03-09T05:14:04.301Z,21.90
2019-03-09T05:16:31.903Z,21.90
2019-03-09T05:18:59.573Z,21.90
2019-03-09T05:21:27.233Z,21.90
2019-03-09T05:23:54.854Z,21.90
2019-03-09T05:26:22.579Z,21.90
2019-03-09T05:28:50.283Z,21.90
2019-03-09T05:31:17.866Z,21.90
2019-03-09T05:33:45.541Z,21.90
2019-03-09T05:36:13.161Z,21.90
2019-03-09T05:38:40.833Z,21.90
2019-03-09T05:41:08.485Z,22.30
2019-03-09T05:43:36.089Z,21.90
2019-03-09T05:46:03.758Z,22.00
2019-03-09T05:48:31.386Z,21.90
2019-03-09T05:50:58.993Z,21.90
2019-03-09T05:53:26.579Z,21.90
2019-03-09T05:55:54.210Z,21.90
2019-03-09T05:58:21.811Z,21.90
2019-03-09T06:00:49.397Z,21.90
2019-03-09T06:03:17.115Z,21.90
2019-03-09T06:05:45.777Z,21.90
2019-03-09T06:08:13.422Z,21.90
2019-03-09T06:10:40.984Z,21.90
2019-03-09T06:13:08.763Z,21.90
2019-03-09T06:15:36.381Z,21.90
2019-03-09T06:18:06.179Z,21.90
2019-03-09T06:20:33.368Z,21.90
2019-03-09T06:23:00.943Z,21.90
2019-03-09T06:25:28.747Z,21.90
2019-03-09T06:27:56.413Z,21.90
2019-03-09T06:30:24.068Z,21.90
2019-03-09T06:33:10.030Z,21.90
2019-03-09T06:35:37.737Z,22.00
2019-03-09T06:38:06.953Z,21.90
2019-03-09T06:40:34.592Z,22.00
2019-03-09T06:43:02.309Z,22.00
2019-03-09T06:45:29.907Z,22.00
2019-03-09T06:47:57.634Z,22.00
2019-03-09T06:50:25.274Z,21.90
2019-03-09T06:52:52.969Z,21.90
2019-03-09T06:55:20.641Z,22.00
2019-03-09T06:57:48.250Z,22.00
2019-03-09T07:00:17.518Z,22.00
2019-03-09T07:02:45.099Z,22.10
2019-03-09T07:05:12.706Z,22.20
2019-03-09T07:07:40.397Z,22.20
2019-03-09T07:10:07.992Z,22.20
2019-03-09T07:12:35.623Z,22.30
2019-03-09T07:15:04.901Z,22.30
2019-03-09T07:17:32.574Z,22.30
2019-03-09T07:20:11.846Z,22.30
2019-03-09T07:22:30.690Z,22.30
2019-03-09T07:24:58.406Z,22.30
2019-03-09T07:27:26.021Z,22.30
2019-03-09T07:29:53.666Z,22.30
2019-03-09T07:32:21.300Z,22.30
2019-03-09T07:34:48.942Z,22.30
2019-03-09T07:37:16.539Z,22.30
2019-03-09T07:39:44.196Z,22.30
2019-03-09T07:42:11.852Z,22.30
2019-03-09T07:44:39.481Z,22.30
2019-03-09T07:47:07.196Z,22.20
2019-03-09T07:49:34.855Z,22.20
2019-03-09T07:52:04.073Z,22.20
2019-03-09T07:54:31.686Z,22.20
2019-03-09T07:56:59.326Z,22.20
2019-03-09T07:59:26.926Z,22.20
2019-03-09T08:01:54.549Z,22.20
2019-03-09T08:04:22.270Z,22.10
2019-03-09T08:06:49.992Z,22.10
2019-03-09T08:09:17.603Z,22.10
2019-03-09T08:11:45.190Z,22.10
2019-03-09T08:14:12.840Z,22.10
2019-03-09T08:16:40.450Z,22.10
2019-03-09T08:19:08.064Z,22.10
2019-03-09T08:21:35.722Z,22.10
2019-03-09T08:24:03.406Z,22.10
2019-03-09T08:26:30.982Z,22.10
2019-03-09T08:28:58.639Z,22.00
2019-03-09T08:31:26.297Z,22.10
2019-03-09T08:33:53.907Z,22.10
2019-03-09T08:36:21.568Z,22.00
2019-03-09T08:38:49.173Z,22.00
2019-03-09T08:41:16.840Z,22.10
2019-03-09T08:43:44.482Z,22.00
2019-03-09T08:46:12.210Z,22.00
2019-03-09T08:48:39.862Z,22.10
2019-03-09T08:51:07.446Z,22.00
2019-03-09T08:53:35.123Z,22.10
2019-03-09T08:56:02.759Z,22.00
2019-03-09T08:58:30.354Z,22.00
2019-03-09T09:00:58.042Z,22.00
2019-03-09T09:03:25.686Z,22.10
2019-03-09T09:05:53.351Z,22.00
2019-03-09T09:08:21.033Z,22.00
2019-03-09T09:10:48.757Z,22.00
2019-03-09T09:13:16.432Z,22.00
2019-03-09T09:15:44.095Z,22.00
2019-03-09T09:18:11.755Z,22.00
2019-03-09T09:20:39.339Z,22.00
2019-03-09T09:23:06.934Z,22.00
2019-03-09T09:25:34.611Z,22.00
2019-03-09T09:28:02.186Z,22.00
2019-03-09T09:30:30.567Z,22.00
2019-03-09T09:32:58.202Z,22.00
2019-03-09T09:35:25.780Z,22.00
2019-03-09T09:37:53.413Z,22.00
2019-03-09T09:40:22.105Z,22.00
2019-03-09T09:42:49.685Z,22.00
2019-03-09T09:45:17.307Z,22.00
2019-03-09T09:47:44.965Z,22.00
2019-03-09T09:50:13.639Z,22.00
2019-03-09T09:52:41.313Z,22.00
2019-03-09T09:55:09.924Z,22.00
2019-03-09T09:57:37.500Z,22.00
2019-03-09T10:00:09.782Z,22.00
2019-03-09T10:02:37.462Z,22.00
2019-03-09T10:05:06.391Z,22.00
2019-03-09T10:07:33.990Z,22.00
2019-03-09T10:10:01.593Z,22.00
2019-03-09T10:12:29.319Z,22.00
2019-03-09T10:14:56.917Z,22.10
2019-03-09T10:17:24.514Z,22.10
2019-03-09T10:19:52.137Z,22.10
2019-03-09T10:22:19.762Z,22.10
2019-03-09T10:24:47.442Z,22.10
2019-03-09T10:27:15.090Z,22.10
2019-03-09T10:29:42.683Z,22.10
2019-03-09T10:32:10.316Z,22.10
2019-03-09T10:34:38.038Z,22.10
2019-03-09T10:37:05.723Z,22.10
2019-03-09T10:39:33.367Z,22.10
2019-03-09T10:42:01.059Z,22.10
2019-03-09T10:44:28.669Z,22.10
2019-03-09T10:46:56.286Z,22.10
2019-03-09T10:49:23.914Z,22.10
2019-03-09T10:51:51.561Z,22.10
2019-03-09T10:54:19.163Z,22.10
2019-03-09T10:56:46.853Z,22.20
2019-03-09T10:59:14.515Z,22.10
2019-03-09T11:01:42.113Z,22.20
2019-03-09T11:04:09.769Z,22.20
2019-03-09T11:06:37.362Z,22.20
2019-03-09T11:09:05.240Z,22.20
2019-03-09T11:11:32.847Z,22.20
2019-03-09T11:14:00.446Z,22.20
2019-03-09T11:16:28.082Z,22.20
2019-03-09T11:18:55.709Z,22.20
2019-03-09T11:21:23.381Z,22.20
2019-03-09T11:23:51.096Z,22.20
2019-03-09T11:26:18.803Z,22.20
2019-03-09T11:28:46.397Z,22.20
2019-03-09T11:31:14.124Z,22.20
2019-03-09T11:33:41.818Z,22.30
2019-03-09T11:36:09.541Z,22.30
2019-03-09T11:38:37.140Z,22.30
2019-03-09T11:41:04.802Z,22.30
2019-03-09T11:43:32.510Z,22.30
2019-03-09T11:46:00.114Z,22.30
2019-03-09T11:48:27.819Z,22.30
2019-03-09T11:50:55.523Z,22.30
2019-03-09T11:53:23.129Z,22.30
2019-03-09T11:55:50.731Z,22.30
2019-03-09T11:58:18.399Z,22.30
2019-03-09T12:00:46.937Z,22.30
2019-03-09T12:03:14.661Z,22.30
2019-03-09T12:05:42.343Z,22.30
2019-03-09T12:08:09.999Z,22.30
2019-03-09T12:10:37.657Z,22.30
2019-03-09T12:13:05.311Z,22.30
2019-03-09T12:15:32.993Z,22.30
2019-03-09T12:18:00.633Z,22.40
2019-03-09T12:20:29.967Z,22.30
2019-03-09T12:23:01.730Z,22.40
2019-03-09T12:25:28.523Z,22.40
2019-03-09T12:27:56.163Z,22.40
2019-03-09T12:30:23.755Z,22.40
2019-03-09T12:32:51.398Z,22.40
2019-03-09T12:35:19.039Z,22.40
2019-03-09T12:37:46.709Z,22.50
2019-03-09T12:40:17.440Z,22.40
2019-03-09T12:42:45.167Z,22.40
2019-03-09T12:45:12.767Z,22.40
2019-03-09T12:47:40.347Z,22.40
2019-03-09T12:50:09.759Z,22.40
2019-03-09T12:52:37.392Z,22.50
2019-03-09T12:55:05.554Z,22.50
2019-03-09T12:57:33.282Z,22.50
2019-03-09T13:00:00.970Z,22.50
2019-03-09T13:02:28.582Z,22.50
2019-03-09T13:04:56.271Z,22.50
2019-03-09T13:07:23.926Z,22.50
2019-03-09T13:09:51.553Z,22.50
2019-03-09T13:12:19.224Z,22.50
2019-03-09T13:14:46.887Z,22.50
2019-03-09T13:17:14.483Z,22.50
2019-03-09T13:19:42.182Z,22.50
2019-03-09T13:22:09.893Z,22.50
2019-03-09T13:24:37.526Z,22.50
2019-03-09T13:27:05.250Z,22.50
2019-03-09T13:29:32.881Z,22.50
2019-03-09T13:32:00.587Z,22.50
2019-03-09T13:34:28.250Z,22.50
2019-03-09T13:36:55.930Z,22.50
2019-03-09T13:39:23.603Z,22.50
2019-03-09T13:41:51.262Z,22.50
2019-03-09T13:44:18.881Z,22.50
2019-03-09T13:46:46.464Z,22.50
2019-03-09T13:49:14.120Z,22.50
2019-03-09T13:51:41.816Z,22.40
2019-03-09T13:54:09.496Z,22.40
2019-03-09T13:56:37.126Z,22.40
2019-03-09T13:59:04.799Z,22.40
2019-03-09T14:01:32.474Z,22.40
2019-03-09T14:04:00.090Z,22.40
2019-03-09T14:06:27.748Z,22.40
2019-03-09T14:08:55.343Z,22.30
2019-03-09T14:11:23.052Z,22.30
2019-03-09T14:13:50.656Z,22.30
2019-03-09T14:16:18.243Z,22.30
2019-03-09T14:18:45.895Z,22.30
2019-03-09T14:21:13.480Z,22.30
2019-03-09T14:23:41.094Z,22.30
2019-03-09T14:26:08.816Z,22.30
2019-03-09T14:28:36.580Z,22.30
2019-03-09T14:31:04.316Z,22.30
2019-03-09T14:33:31.996Z,22.30
2019-03-09T14:36:02.558Z,22.30
2019-03-09T14:38:30.264Z,22.30
2019-03-09T14:40:57.923Z,22.30
2019-03-09T14:43:25.552Z,22.30
2019-03-09T14:45:53.218Z,22.30
2019-03-09T14:48:20.820Z,22.30
2019-03-09T14:50:48.421Z,22.30
2019-03-09T14:53:16.129Z,22.30
2019-03-09T14:55:43.747Z,22.30
2019-03-09T14:58:11.391Z,22.30
2019-03-09T15:00:38.990Z,22.30
2019-03-09T15:03:06.588Z,22.30
2019-03-09T15:05:34.214Z,22.30
2019-03-09T15:08:01.848Z,22.30
2019-03-09T15:10:29.514Z,22.30
2019-03-09T15:12:57.134Z,22.30
2019-03-09T15:15:24.793Z,22.30
2019-03-09T15:17:52.424Z,22.30
2019-03-09T15:20:20.083Z,22.30
2019-03-09T15:22:47.729Z,22.30
2019-03-09T15:25:16.948Z,22.30
2019-03-09T15:27:44.566Z,22.30
2019-03-09T15:30:13.371Z,22.30
2019-03-09T15:32:41.019Z,22.30
2019-03-09T15:35:09.042Z,22.30
2019-03-09T15:37:36.644Z,22.30
2019-03-09T15:40:05.315Z,22.30
2019-03-09T15:42:32.962Z,22.30
2019-03-09T15:45:00.578Z,22.30
2019-03-09T15:47:28.264Z,22.30
2019-03-09T15:49:55.930Z,22.30
2019-03-09T15:52:23.512Z,22.30
2019-03-09T15:54:51.158Z,22.30
2019-03-09T15:57:18.769Z,22.40
2019-03-09T15:59:46.362Z,22.40
2019-03-09T16:02:14.020Z,22.30
2019-03-09T16:04:41.603Z,22.30
2019-03-09T16:07:09.221Z,22.30
2019-03-09T16:09:36.941Z,22.30
2019-03-09T16:12:04.600Z,22.30
2019-03-09T16:14:32.193Z,22.30
2019-03-09T16:17:01.463Z,22.30
2019-03-09T16:19:29.153Z,22.30
2019-03-09T16:21:56.855Z,22.40
2019-03-09T16:24:25.589Z,22.30
2019-03-09T16:26:53.308Z,22.30
2019-03-09T16:29:20.882Z,22.30
2019-03-09T16:31:48.594Z,22.30
2019-03-09T16:34:16.169Z,22.30
2019-03-09T16:36:43.849Z,22.30
2019-03-09T16:39:13.438Z,22.30
2019-03-09T16:41:40.845Z,22.40
2019-03-09T16:44:08.472Z,22.30
2019-03-09T16:46:36.082Z,22.30
2019-03-09T16:49:03.738Z,22.30
2019-03-09T16:51:31.333Z,22.30
2019-03-09T16:53:58.959Z,22.30
2019-03-09T16:56:26.706Z,22.30
2019-03-09T16:58:54.379Z,22.30
2019-03-09T17:01:21.975Z,22.30
2019-03-09T17:03:49.597Z,22.30
2019-03-09T17:06:17.197Z,22.30
2019-03-09T17:08:44.855Z,22.30
2019-03-09T17:11:12.528Z,22.30
2019-03-09T17:13:40.123Z,22.30
2019-03-09T17:16:07.758Z,22.30
2019-03-09T17:18:35.359Z,22.30
2019-03-09T17:21:03.013Z,22.30
2019-03-09T17:23:30.663Z,22.30
2019-03-09T17:25:58.246Z,22.30
2019-03-09T17:28:25.877Z,22.30
2019-03-09T17:30:53.525Z,22.30
2019-03-09T17:33:21.118Z,22.30
2019-03-09T17:35:48.705Z,22.30
2019-03-09T17:38:16.382Z,22.30
2019-03-09T17:40:43.981Z,22.30
2019-03-09T17:43:11.661Z,22.30
2019-03-09T17:45:39.278Z,22.30
2019-03-09T17:48:06.894Z,22.30
2019-03-09T17:50:34.614Z,22.30
2019-03-09T17:53:02.409Z,22.30
2019-03-09T17:55:30.071Z,22.30
2019-03-09T17:57:57.688Z,22.30
2019-03-09T18:00:42.210Z,22.30
2019-03-09T18:03:02.215Z,22.30
2019-03-09T18:05:29.820Z,22.30
2019-03-09T18:07:57.726Z,22.30
2019-03-09T18:10:27.042Z,22.30
2019-03-09T18:12:54.711Z,22.30
2019-03-09T18:15:22.358Z,22.30
2019-03-09T18:17:51.119Z,22.30
2019-03-09T18:20:18.831Z,22.30
2019-03-09T18:22:46.517Z,22.30
2019-03-09T18:25:14.195Z,22.30
2019-03-09T18:27:41.789Z,22.30
2019-03-09T18:30:10.129Z,22.40
2019-03-09T18:32:37.749Z,22.40
2019-03-09T18:35:07.122Z,22.40
2019-03-09T18:37:34.731Z,22.50
2019-03-09T18:40:02.316Z,22.40
2019-03-09T18:42:29.961Z,22.40
2019-03-09T18:44:57.585Z,22.40
2019-03-09T18:47:25.329Z,22.40
2019-03-09T18:49:53.009Z,22.40
2019-03-09T18:52:20.639Z,22.40
2019-03-09T18:54:48.243Z,22.40
2019-03-09T18:57:15.887Z,22.40
2019-03-09T18:59:43.542Z,22.40
2019-03-09T19:02:11.179Z,22.50
2019-03-09T19:04:38.802Z,22.50
2019-03-09T19:07:06.446Z,22.50
2019-03-09T19:09:34.067Z,22.50
2019-03-09T19:12:01.695Z,22.50
2019-03-09T19:14:29.373Z,22.50
2019-03-09T19:16:57.009Z,22.50
2019-03-09T19:19:24.603Z,22.50
2019-03-09T19:21:52.262Z,22.50
2019-03-09T19:24:19.886Z,22.50
2019-03-09T19:26:47.542Z,22.50
2019-03-09T19:29:15.170Z,22.50
2019-03-09T19:31:42.778Z,22.50
2019-03-09T19:34:10.435Z,22.50
2019-03-09T19:36:38.161Z,22.50
2019-03-09T19:39:05.763Z,22.50
2019-03-09T19:41:33.462Z,22.50
2019-03-09T19:44:01.172Z,22.50
2019-03-09T19:46:29.013Z,22.50
2019-03-09T19:48:56.662Z,22.60
2019-03-09T19:51:24.257Z,22.60
2019-03-09T19:53:51.906Z,22.60
2019-03-09T19:56:19.564Z,22.60
2019-03-09T19:58:47.390Z,22.60
2019-03-09T20:01:15.006Z,22.60
2019-03-09T20:03:42.723Z,22.60
2019-03-09T20:06:10.318Z,22.60
2019-03-09T20:08:37.970Z,22.60
2019-03-09T20:11:05.580Z,22.60
2019-03-09T20:13:33.243Z,22.70
2019-03-09T20:16:01.677Z,22.70
2019-03-09T20:18:29.346Z,22.60
2019-03-09T20:20:57.042Z,22.60
2019-03-09T20:23:26.304Z,22.60
2019-03-09T20:25:53.968Z,22.60
2019-03-09T20:28:21.592Z,22.60
2019-03-09T20:30:49.275Z,22.60
2019-03-09T20:33:16.887Z,22.60
2019-03-09T20:35:44.563Z,22.60
2019-03-09T20:38:12.232Z,22.60
2019-03-09T20:40:39.845Z,22.60
2019-03-09T20:43:07.501Z,22.60
2019-03-09T20:45:35.093Z,22.60
2019-03-09T20:48:02.736Z,22.60
2019-03-09T20:50:30.369Z,22.60
2019-03-09T20:52:58.047Z,22.60
2019-03-09T20:55:25.698Z,22.60
2019-03-09T20:57:53.352Z,22.60
2019-03-09T21:00:21.428Z,22.60
2019-03-09T21:02:49.113Z,22.60
2019-03-09T21:05:16.811Z,22.60
2019-03-09T21:07:44.544Z,22.60
2019-03-09T21:10:13.404Z,22.60
2019-03-09T21:12:54.087Z,22.60
2019-03-09T21:15:21.808Z,22.60
2019-03-09T21:17:49.472Z,22.60
2019-03-09T21:20:17.135Z,22.60
2019-03-09T21:22:44.800Z,22.60
2019-03-09T21:25:12.411Z,22.30
2019-03-09T21:27:40.009Z,22.60
2019-03-09T21:30:07.976Z,22.60
2019-03-09T21:32:35.564Z,22.60
2019-03-09T21:35:03.408Z,22.60
2019-03-09T21:37:31.096Z,22.60
2019-03-09T21:39:58.755Z,22.60
2019-03-09T21:42:26.412Z,22.60
2019-03-09T21:44:54.042Z,22.60
2019-03-09T21:47:21.648Z,22.60
2019-03-09T21:49:49.298Z,22.60
2019-03-09T21:52:16.923Z,22.60
2019-03-09T21:54:44.665Z,22.50
2019-03-09T21:57:12.306Z,22.60
2019-03-09T21:59:39.974Z,22.60
2019-03-09T22:02:07.663Z,22.60
2019-03-09T22:04:35.337Z,22.60
2019-03-09T22:07:02.998Z,22.60
2019-03-09T22:09:30.659Z,22.50
2019-03-09T22:11:58.340Z,22.60
2019-03-09T22:14:26.006Z,22.60
2019-03-09T22:16:56.805Z,22.60
2019-03-09T22:19:22.981Z,22.40
2019-03-09T22:21:50.587Z,22.50
2019-03-09T22:24:18.192Z,22.50
2019-03-09T22:26:45.834Z,22.50
2019-03-09T22:29:13.409Z,22.50
2019-03-09T22:31:41.015Z,22.50
2019-03-09T22:34:08.719Z,22.50
2019-03-09T22:36:36.328Z,22.50
2019-03-09T22:39:04.763Z,22.50
2019-03-09T22:41:32.379Z,22.30
2019-03-09T22:43:59.980Z,22.50
2019-03-09T22:46:27.646Z,22.60
2019-03-09T22:48:55.248Z,22.50
2019-03-09T22:51:22.871Z,22.50
2019-03-09T22:53:50.827Z,22.50
2019-03-09T22:56:18.490Z,22.50
2019-03-09T22:58:46.139Z,22.50
2019-03-09T23:01:13.881Z,22.50
2019-03-09T23:03:41.490Z,22.50
2019-03-09T23:06:09.073Z,22.50
2019-03-09T23:08:36.740Z,22.50
2019-03-09T23:11:04.342Z,22.50
2019-03-09T23:13:31.919Z,22.50
2019-03-09T23:15:59.568Z,22.50
2019-03-09T23:18:27.148Z,22.50
2019-03-09T23:20:54.740Z,22.50
2019-03-09T23:23:22.379Z,22.50
2019-03-09T23:25:50.033Z,22.40
2019-03-09T23:28:17.673Z,22.50
2019-03-09T23:30:45.262Z,22.50
2019-03-09T23:33:12.923Z,22.40
2019-03-09T23:35:40.550Z,22.50
2019-03-09T23:38:08.219Z,22.50
2019-03-09T23:40:35.871Z,22.40
2019-03-09T23:43:03.522Z,22.40
2019-03-09T23:45:31.115Z,22.40
2019-03-09T23:47:58.717Z,22.40
2019-03-09T23:50:26.368Z,22.40
2019-03-09T23:52:54.058Z,22.40
2019-03-09T23:55:22.989Z,22.40
2019-03-09T23:57:50.988Z,22.40
